Time;durP1;ratioP1;P1;durP2;ratioP2;P2;SDS_P1;SDS_P2;PMS_P1;PMS_P2;Temp;Humidity;BMP_temperature;BMP_pressure;BME280_temperature;BME280_humidity;BME280_pressure;Samples;Min_cycle;Max_cycle;Signal;HPM_P1;HPM_P2
2023/08/24 00:00:19;;;;;;;10.65;5.63;;;;;;;20.71;67.04;100106.75;5086274;28;20058;-77
2023/08/24 00:02:44;;;;;;;10.98;5.50;;;;;;;20.63;67.30;100105.59;5086295;28;20051;-76
2023/08/24 00:05:09;;;;;;;13.07;5.80;;;;;;;20.64;67.43;100101.69;5085890;28;20119;-78
2023/08/24 00:07:34;;;;;;;9.17;5.43;;;;;;;20.68;66.98;100101.06;5086578;28;20501;-77
2023/08/24 00:10:00;;;;;;;8.80;4.90;;;;;;;20.67;66.82;100094.69;5086400;28;20281;-77
2023/08/24 00:12:25;;;;;;;10.60;5.18;;;;;;;20.53;67.06;100103.16;5086112;28;20291;-77
2023/08/24 00:14:51;;;;;;;10.25;6.03;;;;;;;20.41;67.20;100093.53;5085481;28;20142;-77
2023/08/24 00:17:16;;;;;;;12.93;5.28;;;;;;;20.40;68.05;100091.91;5085831;28;20028;-77
2023/08/24 00:19:41;;;;;;;9.50;5.47;;;;;;;20.53;67.41;100092.06;5084370;28;20031;-77
2023/08/24 00:22:06;;;;;;;12.80;5.07;;;;;;;20.57;67.28;100081.97;5084654;28;20261;-78
2023/08/24 00:24:32;;;;;;;9.73;5.63;;;;;;;20.38;66.99;100096.94;5084910;28;20269;-78
2023/08/24 00:26:57;;;;;;;10.85;4.60;;;;;;;20.46;68.38;100084.25;5085361;28;20259;-79
2023/08/24 00:29:22;;;;;;;11.97;5.73;;;;;;;20.46;69.41;100089.00;5085222;28;20036;-79
2023/08/24 00:31:48;;;;;;;8.52;5.75;;;;;;;20.56;69.44;100076.78;5085651;28;20252;-79
2023/08/24 00:34:13;;;;;;;16.67;6.95;;;;;;;20.65;68.50;100086.72;5085359;28;20032;-79
2023/08/24 00:36:38;;;;;;;8.68;5.35;;;;;;;20.50;68.60;100088.00;5086095;28;20535;-79
2023/08/24 00:39:03;;;;;;;8.77;5.32;;;;;;;20.43;69.10;100095.97;5085884;28;20685;-79
2023/08/24 00:41:29;;;;;;;10.03;5.63;;;;;;;20.42;70.07;100092.38;5085967;28;20031;-78
2023/08/24 00:43:54;;;;;;;11.50;6.05;;;;;;;20.42;70.49;100084.09;5085646;28;20268;-79
2023/08/24 00:46:19;;;;;;;10.27;5.47;;;;;;;20.55;69.98;100081.50;5085600;28;20081;-79
2023/08/24 00:48:46;;;;;;;10.82;5.20;;;;;;;20.37;70.20;100073.19;5085335;28;20036;-80
2023/08/24 00:51:11;;;;;;;9.63;6.07;;;;;;;20.25;71.21;100073.00;5085416;28;20434;-78
2023/08/24 00:53:37;;;;;;;12.48;6.75;;;;;;;20.12;72.03;100069.22;5084871;28;20040;-78
2023/08/24 00:56:03;;;;;;;12.90;5.95;;;;;;;20.23;72.11;100065.03;5085600;28;20087;-79
2023/08/24 00:58:29;;;;;;;9.32;5.60;;;;;;;20.36;71.37;100063.22;5085332;28;20032;-79
2023/08/24 01:00:56;;;;;;;7.78;5.03;;;;;;;20.40;70.66;100063.41;5085800;28;20097;-80
2023/08/24 01:03:23;;;;;;;11.15;5.60;;;;;;;20.40;70.37;100068.97;5084731;28;20036;-78
2023/08/24 01:05:48;;;;;;;11.60;6.57;;;;;;;20.38;70.39;100066.50;5084666;28;20719;-79
2023/08/24 01:08:14;;;;;;;10.20;6.18;;;;;;;20.36;69.94;100068.75;5085449;28;20039;-77
2023/08/24 01:10:57;;;;;;;13.07;6.57;;;;;;;20.26;69.88;100069.91;5085045;28;20036;-78
2023/08/24 01:13:33;;;;;;;8.98;6.28;;;;;;;20.29;69.99;100071.22;5084427;28;20097;-73
2023/08/24 01:16:08;;;;;;;10.73;5.55;;;;;;;20.34;69.40;100073.81;5084502;28;20444;-74
2023/08/24 01:18:36;;;;;;;10.52;6.60;;;;;;;20.36;69.26;100063.22;5083559;28;20027;-75
2023/08/24 01:21:02;;;;;;;9.15;5.22;;;;;;;20.28;69.11;100066.81;5083931;28;20031;-75
2023/08/24 01:23:51;;;;;;;14.02;6.95;;;;;;;20.17;69.06;100067.13;5083747;28;20035;-74
2023/08/24 01:26:20;;;;;;;12.00;5.88;;;;;;;20.16;69.18;100065.50;5083767;28;20039;-73
2023/08/24 01:28:47;;;;;;;8.80;5.05;;;;;;;20.15;69.45;100058.34;5083193;28;20036;-74
2023/08/24 01:31:16;;;;;;;14.18;5.88;;;;;;;20.17;69.26;100055.25;5082717;28;20026;-74
2023/08/24 01:33:43;;;;;;;14.43;5.68;;;;;;;20.25;68.74;100050.84;5083654;28;20033;-75
2023/08/24 01:36:13;;;;;;;11.40;5.63;;;;;;;20.30;68.30;100047.91;5083847;28;20159;-73
2023/08/24 01:38:39;;;;;;;10.95;5.82;;;;;;;20.35;67.82;100045.00;5084098;28;20032;-73
2023/08/24 01:41:11;;;;;;;17.30;5.82;;;;;;;20.35;67.87;100049.72;5083830;28;20622;-74
2023/08/24 01:43:39;;;;;;;20.98;6.32;;;;;;;20.33;67.88;100041.75;5083598;28;20107;-73
2023/08/24 01:46:07;;;;;;;11.07;6.18;;;;;;;20.32;67.79;100034.56;5082666;28;20088;-76
2023/08/24 01:48:33;;;;;;;11.18;5.82;;;;;;;20.32;67.77;100040.09;5083514;28;20043;-74
2023/08/24 01:50:59;;;;;;;13.60;6.57;;;;;;;20.31;67.68;100044.03;5083099;28;20492;-75
2023/08/24 01:53:27;;;;;;;11.32;5.28;;;;;;;20.36;67.54;100052.16;5082966;28;20611;-75
2023/08/24 01:55:53;;;;;;;9.55;6.60;;;;;;;20.33;68.08;100052.81;5083717;28;21173;-74
2023/08/24 01:58:18;;;;;;;16.38;6.32;;;;;;;20.23;68.41;100053.13;5084054;28;20047;-74
2023/08/24 02:00:43;;;;;;;10.00;5.80;;;;;;;20.20;68.57;100053.78;5083382;28;20049;-73
2023/08/24 02:03:09;;;;;;;8.33;5.80;;;;;;;20.12;69.00;100056.19;5083178;28;20032;-74
2023/08/24 02:05:34;;;;;;;12.47;6.43;;;;;;;20.06;69.41;100049.16;5083284;28;21362;-73
2023/08/24 02:07:59;;;;;;;10.97;5.77;;;;;;;20.14;69.15;100040.09;5083032;28;20252;-73
2023/08/24 02:10:25;;;;;;;9.27;6.05;;;;;;;20.17;68.91;100017.31;5083721;28;20975;-74
2023/08/24 02:12:51;;;;;;;14.23;6.82;;;;;;;20.18;68.96;100018.94;5083287;28;20032;-73
2023/08/24 02:15:17;;;;;;;11.43;6.03;;;;;;;20.17;68.97;100017.31;5083281;28;20556;-74
2023/08/24 02:17:42;;;;;;;8.32;5.32;;;;;;;20.13;68.91;100005.28;5083479;28;20125;-74
2023/08/24 02:20:11;;;;;;;12.87;6.63;;;;;;;20.12;68.67;100017.47;5083354;28;20638;-73
2023/08/24 02:22:37;;;;;;;11.30;6.50;;;;;;;19.92;69.12;100018.88;5083596;28;20338;-73
2023/08/24 02:25:04;;;;;;;11.18;6.20;;;;;;;19.64;70.15;100010.81;5082831;28;20598;-73
2023/08/24 02:27:29;;;;;;;12.40;6.13;;;;;;;19.64;70.19;100017.19;5083249;28;20067;-73
2023/08/24 02:29:55;;;;;;;10.23;6.03;;;;;;;19.80;70.27;100030.56;5083147;28;20020;-73
2023/08/24 02:32:20;;;;;;;13.27;7.13;;;;;;;19.83;70.09;100038.22;5083986;28;20276;-78
2023/08/24 02:34:45;;;;;;;11.88;7.32;;;;;;;19.73;70.12;100035.75;5082994;28;20024;-78
2023/08/24 02:37:11;;;;;;;10.80;7.03;;;;;;;19.84;69.55;100023.25;5084637;28;20047;-78
2023/08/24 02:39:36;;;;;;;10.40;5.97;;;;;;;19.85;70.04;100033.19;5084390;28;20036;-78
2023/08/24 02:42:02;;;;;;;12.00;7.00;;;;;;;19.81;69.92;100027.47;5085122;28;20364;-78
2023/08/24 02:44:27;;;;;;;11.88;7.03;;;;;;;19.87;69.79;100016.25;5084453;28;21528;-78
2023/08/24 02:46:53;;;;;;;10.30;6.53;;;;;;;19.91;69.80;100020.81;5084576;28;20119;-76
2023/08/24 02:49:19;;;;;;;11.85;7.07;;;;;;;19.95;69.66;100002.44;5083990;28;20485;-79
2023/08/24 02:51:44;;;;;;;11.43;6.95;;;;;;;19.96;69.49;100011.56;5084524;28;20032;-78
2023/08/24 02:54:09;;;;;;;11.40;6.37;;;;;;;19.75;70.17;100011.34;5084367;28;20040;-77
2023/08/24 02:56:34;;;;;;;13.43;7.30;;;;;;;19.64;70.33;100011.66;5084901;28;20332;-78
2023/08/24 02:59:00;;;;;;;13.30;7.40;;;;;;;19.63;70.43;100017.50;5084481;28;20326;-78
2023/08/24 03:01:26;;;;;;;14.53;8.43;;;;;;;19.63;70.14;100021.06;5084431;28;20336;-78
2023/08/24 03:03:51;;;;;;;12.88;6.50;;;;;;;19.64;70.53;100017.19;5083868;28;20276;-78
2023/08/24 03:06:16;;;;;;;11.18;7.28;;;;;;;19.77;70.08;100022.91;5084529;28;20040;-77
2023/08/24 03:08:42;;;;;;;10.70;6.40;;;;;;;19.85;70.25;100024.06;5084434;28;20044;-78
2023/08/24 03:11:07;;;;;;;10.77;6.33;;;;;;;19.82;69.87;100020.81;5083973;28;20466;-78
2023/08/24 03:13:38;;;;;;;12.57;7.03;;;;;;;19.74;70.52;100023.53;5084820;28;20257;-79
2023/08/24 03:16:04;;;;;;;15.10;6.95;;;;;;;19.59;70.82;100026.41;5087815;28;20272;-78
2023/08/24 03:18:30;;;;;;;11.02;7.60;;;;;;;19.55;71.12;100027.38;5086410;28;20061;-78
2023/08/24 03:20:55;;;;;;;11.07;6.78;;;;;;;19.73;71.33;100019.16;5086645;28;20048;-78
2023/08/24 03:23:21;;;;;;;10.00;5.67;;;;;;;19.81;71.02;100016.41;5087180;28;20039;-79
2023/08/24 03:25:47;;;;;;;13.13;7.45;;;;;;;19.90;70.71;100018.38;5088145;28;20258;-78
2023/08/24 03:28:12;;;;;;;14.52;6.40;;;;;;;19.69;70.89;100017.00;5088606;28;20028;-78
2023/08/24 03:30:40;;;;;;;9.50;6.63;;;;;;;19.76;70.98;100010.19;5088081;28;20035;-77
2023/08/24 03:33:05;;;;;;;9.02;6.05;;;;;;;19.85;70.07;100007.47;5087712;28;20275;-74
2023/08/24 03:35:31;;;;;;;14.48;5.90;;;;;;;19.91;70.51;100009.75;5085906;28;20036;-72
2023/08/24 03:37:56;;;;;;;13.40;7.15;;;;;;;19.98;69.90;100002.91;5085928;28;20036;-71
2023/08/24 03:40:22;;;;;;;11.70;6.35;;;;;;;19.69;70.88;100002.38;5085591;28;20063;-72
2023/08/24 03:42:47;;;;;;;9.63;6.10;;;;;;;19.65;71.23;100012.47;5086299;28;20111;-77
2023/08/24 03:45:12;;;;;;;12.10;5.63;;;;;;;19.73;70.87;100008.88;5086523;28;20024;-76
2023/08/24 03:47:38;;;;;;;24.10;8.43;;;;;;;19.83;70.68;99996.72;5087366;28;20481;-76
2023/08/24 03:50:04;;;;;;;12.93;7.15;;;;;;;19.90;70.47;100005.38;5086815;28;20280;-76
2023/08/24 03:52:29;;;;;;;13.95;6.70;;;;;;;19.81;70.45;100012.84;5086954;28;20106;-76
2023/08/24 03:54:54;;;;;;;8.83;5.83;;;;;;;19.77;70.78;100020.16;5086600;28;20125;-76
2023/08/24 03:57:20;;;;;;;10.65;6.03;;;;;;;19.77;70.30;100020.16;5086645;28;20264;-77
2023/08/24 03:59:45;;;;;;;10.57;5.65;;;;;;;19.79;70.70;100023.41;5087514;28;20028;-76
2023/08/24 04:02:10;;;;;;;10.63;5.60;;;;;;;19.86;71.05;100015.44;5087051;28;20792;-78
2023/08/24 04:04:36;;;;;;;10.23;6.53;;;;;;;19.99;70.73;100027.53;5087044;28;20256;-76
2023/08/24 04:07:02;;;;;;;10.53;6.07;;;;;;;20.06;70.35;100040.84;5086525;28;20978;-76
2023/08/24 04:09:28;;;;;;;11.93;6.00;;;;;;;20.03;70.02;100033.22;5086870;28;21127;-76
2023/08/24 04:11:53;;;;;;;9.68;5.63;;;;;;;19.99;70.81;100032.22;5086367;28;20067;-76
2023/08/24 04:14:18;;;;;;;11.32;6.10;;;;;;;20.11;70.63;100040.75;5086620;28;20109;-77
2023/08/24 04:16:43;;;;;;;9.70;5.63;;;;;;;20.17;70.47;100033.09;5087834;28;20070;-77
2023/08/24 04:19:09;;;;;;;10.77;5.80;;;;;;;20.16;70.37;100023.97;5087089;28;20642;-76
2023/08/24 04:21:34;;;;;;;8.10;5.57;;;;;;;20.19;69.65;100014.22;5086905;28;20679;-76
2023/08/24 04:24:00;;;;;;;11.98;5.95;;;;;;;20.18;69.12;100007.88;5086658;28;20314;-76
2023/08/24 04:26:25;;;;;;;9.15;5.85;;;;;;;20.13;69.62;99999.75;5085594;28;20044;-76
2023/08/24 04:28:50;;;;;;;9.20;5.50;;;;;;;20.06;69.78;99994.63;5086736;28;20718;-77
2023/08/24 04:31:16;;;;;;;8.87;5.57;;;;;;;20.06;69.82;99996.59;5087599;28;20271;-76
2023/08/24 04:33:41;;;;;;;10.32;5.68;;;;;;;20.17;69.78;99986.88;5086469;28;20353;-77
2023/08/24 04:36:07;;;;;;;10.07;5.80;;;;;;;20.24;69.43;99982.81;5086579;28;20036;-76
2023/08/24 04:38:32;;;;;;;13.27;6.45;;;;;;;20.29;69.00;99985.41;5086415;28;20382;-76
2023/08/24 04:40:57;;;;;;;15.75;6.85;;;;;;;20.13;69.93;99999.75;5086561;28;20568;-76
2023/08/24 04:43:23;;;;;;;10.97;5.30;;;;;;;20.08;70.16;99996.28;5086394;28;20043;-76
2023/08/24 04:45:53;;;;;;;11.27;6.30;;;;;;;19.99;71.28;99996.25;5086700;28;20340;-76
2023/08/24 04:48:23;;;;;;;13.35;6.80;;;;;;;20.14;71.29;99989.47;5086138;28;20517;-77
2023/08/24 04:50:49;;;;;;;10.05;6.35;;;;;;;20.18;71.87;99991.25;5085529;28;20105;-75
2023/08/24 04:53:18;;;;;;;18.85;6.78;;;;;;;20.24;72.26;99991.13;5085197;28;20048;-72
2023/08/24 04:55:44;;;;;;;12.68;6.78;;;;;;;20.22;72.87;99991.41;5084441;28;20039;-72
2023/08/24 04:58:11;;;;;;;10.65;7.35;;;;;;;20.24;73.00;99982.81;5085075;28;20039;-72
2023/08/24 05:00:37;;;;;;;14.70;7.03;;;;;;;20.24;73.10;99978.06;5084929;28;20135;-72
2023/08/24 05:03:04;;;;;;;8.38;6.38;;;;;;;20.25;73.77;99973.34;5085181;28;20469;-72
2023/08/24 05:05:31;;;;;;;10.63;6.35;;;;;;;20.27;73.50;99971.06;5083130;28;20055;-73
2023/08/24 05:07:56;;;;;;;10.25;5.10;;;;;;;20.27;72.04;99948.94;5084867;28;20050;-72
2023/08/24 05:10:22;;;;;;;10.68;5.70;;;;;;;20.27;72.38;99921.25;5084510;28;20103;-72
2023/08/24 05:12:47;;;;;;;14.80;6.60;;;;;;;20.31;72.79;99936.06;5084627;28;20040;-72
2023/08/24 05:15:13;;;;;;;9.90;5.22;;;;;;;20.25;72.56;99949.28;5084373;28;20257;-73
2023/08/24 05:17:39;;;;;;;10.88;4.88;;;;;;;20.19;73.16;99942.28;5084381;28;20404;-74
2023/08/24 05:20:05;;;;;;;12.50;6.28;;;;;;;20.20;73.28;99945.84;5084916;28;20046;-72
2023/08/24 05:22:30;;;;;;;13.65;5.90;;;;;;;20.03;74.49;99936.38;5084380;28;20049;-72
2023/08/24 05:24:55;;;;;;;9.40;6.00;;;;;;;20.17;74.59;99931.53;5083663;28;20044;-73
2023/08/24 05:27:20;;;;;;;9.43;6.20;;;;;;;20.32;74.24;99932.16;5084139;28;20257;-72
2023/08/24 05:29:46;;;;;;;18.07;5.63;;;;;;;20.29;72.15;99924.50;5084609;28;20028;-72
2023/08/24 05:32:11;;;;;;;15.53;6.97;;;;;;;20.29;70.53;99924.50;5084466;28;20820;-72
2023/08/24 05:34:36;;;;;;;11.47;6.80;;;;;;;20.44;70.48;99919.63;5084059;28;20269;-71
2023/08/24 05:37:02;;;;;;;10.20;5.70;;;;;;;20.45;70.05;99910.16;5083470;28;20248;-73
2023/08/24 05:39:27;;;;;;;10.40;5.63;;;;;;;20.49;70.01;99898.09;5084302;28;20264;-73
2023/08/24 05:41:53;;;;;;;16.27;6.83;;;;;;;20.47;69.66;99894.03;5084197;28;20063;-72
2023/08/24 05:44:19;;;;;;;12.70;6.35;;;;;;;20.36;69.95;99888.03;5083627;28;20036;-73
2023/08/24 05:46:45;;;;;;;9.88;6.15;;;;;;;20.29;69.84;99885.75;5082818;28;20043;-72
2023/08/24 05:49:11;;;;;;;8.93;5.95;;;;;;;20.27;69.88;99872.25;5083337;28;20035;-72
2023/08/24 05:51:36;;;;;;;9.07;5.60;;;;;;;20.17;69.87;99873.41;5083864;28;20028;-76
2023/08/24 05:54:02;;;;;;;13.17;6.10;;;;;;;20.18;69.65;99875.03;5084636;28;20530;-79
2023/08/24 05:56:27;;;;;;;12.90;6.28;;;;;;;20.18;69.21;99861.19;5084593;28;20259;-77
2023/08/24 05:58:54;;;;;;;11.50;6.30;;;;;;;20.16;69.36;99863.47;5085084;28;20074;-78
2023/08/24 06:01:19;;;;;;;14.32;6.30;;;;;;;20.20;68.92;99855.31;5084436;28;20405;-78
2023/08/24 06:03:44;;;;;;;13.18;5.72;;;;;;;20.18;68.57;99852.88;5084525;28;20114;-78
2023/08/24 06:06:10;;;;;;;12.27;6.27;;;;;;;20.27;68.72;99863.94;5084172;28;20051;-77
2023/08/24 06:08:35;;;;;;;10.75;6.13;;;;;;;20.43;68.68;99874.50;5085118;28;20280;-77
2023/08/24 06:11:00;;;;;;;12.35;6.50;;;;;;;20.52;68.26;99863.41;5083637;28;20035;-78
2023/08/24 06:13:26;;;;;;;11.73;5.30;;;;;;;20.50;67.17;99857.38;5084129;28;20031;-77
2023/08/24 06:15:51;;;;;;;17.15;7.05;;;;;;;20.49;67.62;99852.97;5083580;28;20028;-77
2023/08/24 06:18:16;;;;;;;15.50;6.03;;;;;;;20.51;67.74;99851.50;5083252;28;20032;-78
2023/08/24 06:20:42;;;;;;;10.85;6.70;;;;;;;20.50;67.44;99844.34;5082679;28;20071;-77
2023/08/24 06:23:07;;;;;;;14.30;5.07;;;;;;;20.52;67.93;99835.72;5083246;28;20043;-77
2023/08/24 06:25:33;;;;;;;12.23;5.28;;;;;;;20.65;67.99;99837.47;5082718;28;20086;-77
2023/08/24 06:27:59;;;;;;;10.82;5.53;;;;;;;20.78;67.94;99832.03;5082913;28;20039;-77
2023/08/24 06:30:25;;;;;;;21.77;5.80;;;;;;;20.88;67.87;99839.97;5083169;28;20036;-77
2023/08/24 06:32:50;;;;;;;13.52;5.35;;;;;;;20.93;67.26;99849.25;5082979;28;20032;-77
2023/08/24 06:35:15;;;;;;;12.90;5.23;;;;;;;21.04;67.35;99842.19;5082419;28;20063;-78
2023/08/24 06:37:41;;;;;;;26.85;5.25;;;;;;;21.11;68.21;99845.25;5083220;28;20272;-77
2023/08/24 06:40:08;;;;;;;17.48;6.95;;;;;;;21.14;69.11;99848.50;5082656;28;20211;-78
2023/08/24 06:42:33;;;;;;;10.88;6.03;;;;;;;21.23;67.96;99849.28;5083086;28;20027;-77
2023/08/24 06:44:58;;;;;;;14.13;5.33;;;;;;;21.27;66.87;99835.53;5082620;28;20036;-78
2023/08/24 06:47:24;;;;;;;11.23;5.17;;;;;;;21.31;67.36;99837.31;5082814;28;20062;-83
2023/08/24 06:49:50;;;;;;;11.63;5.13;;;;;;;21.40;67.17;99842.00;5085482;28;20040;-79
2023/08/24 06:52:16;;;;;;;10.25;4.18;;;;;;;21.43;66.86;99846.84;5086757;28;20256;-78
2023/08/24 06:54:41;;;;;;;12.52;7.30;;;;;;;21.46;66.98;99835.06;5086065;28;20043;-77
2023/08/24 06:57:06;;;;;;;11.05;5.40;;;;;;;21.45;67.84;99827.91;5087702;28;20043;-78
2023/08/24 06:59:32;;;;;;;16.83;6.53;;;;;;;21.40;69.23;99822.59;5086697;28;20038;-78
2023/08/24 07:01:57;;;;;;;13.45;5.07;;;;;;;21.39;68.42;99843.13;5086440;28;20077;-74
2023/08/24 07:04:23;;;;;;;11.32;5.93;;;;;;;21.32;71.41;99840.88;5086435;28;20150;-73
2023/08/24 07:06:48;;;;;;;13.82;7.97;;;;;;;21.21;71.78;99840.47;5086095;28;20048;-73
2023/08/24 07:09:15;;;;;;;14.88;7.55;;;;;;;21.20;71.63;99849.94;5086520;28;20256;-73
2023/08/24 07:11:40;;;;;;;14.02;7.55;;;;;;;21.21;71.73;99840.47;5086704;28;20036;-77
2023/08/24 07:14:05;;;;;;;14.50;7.37;;;;;;;21.11;72.19;99836.94;5087628;28;20642;-78
2023/08/24 07:16:31;;;;;;;12.57;7.50;;;;;;;21.13;73.30;99827.47;5087023;28;20269;-79
2023/08/24 07:18:56;;;;;;;14.77;7.63;;;;;;;21.14;73.12;99831.88;5086907;28;20277;-81
2023/08/24 07:21:21;;;;;;;15.13;8.30;;;;;;;21.18;73.21;99833.63;5086351;28;20284;-82
2023/08/24 07:23:47;;;;;;;12.00;6.70;;;;;;;21.04;72.86;99830.28;5089470;28;20028;-81
2023/08/24 07:26:12;;;;;;;21.20;7.47;;;;;;;21.09;72.68;99839.22;5087143;28;20359;-83
2023/08/24 07:28:37;;;;;;;14.73;6.88;;;;;;;21.15;71.80;99830.72;5087340;28;20035;-82
2023/08/24 07:31:13;;;;;;;17.57;7.00;;;;;;;21.25;71.62;99830.34;5086691;28;20035;-83
2023/08/24 07:33:43;;;;;;;14.00;7.40;;;;;;;21.32;71.75;99836.16;5086858;28;20805;-82
2023/08/24 07:36:09;;;;;;;15.55;7.32;;;;;;;21.38;72.39;99822.91;5089469;28;20026;-84
2023/08/24 07:38:34;;;;;;;12.75;6.28;;;;;;;21.42;72.16;99825.81;5087255;28;20115;-83
2023/08/24 07:40:59;;;;;;;11.35;6.28;;;;;;;21.48;72.43;99826.44;5096249;28;20039;-82
2023/08/24 07:43:24;;;;;;;10.47;6.53;;;;;;;21.51;71.51;99825.75;5095848;28;20093;-84
2023/08/24 07:45:50;;;;;;;13.88;7.43;;;;;;;21.54;71.44;99825.88;5094779;28;20777;-84
2023/08/24 07:48:15;;;;;;;14.82;7.35;;;;;;;21.57;71.10;99824.41;5091191;28;20871;-84
2023/08/24 07:50:41;;;;;;;12.10;7.07;;;;;;;21.61;72.09;99822.56;5093510;28;20039;-82
2023/08/24 07:53:06;;;;;;;14.23;7.45;;;;;;;21.65;71.30;99828.25;5094844;28;20264;-84
2023/08/24 07:55:31;;;;;;;14.20;7.20;;;;;;;21.69;71.44;99826.44;5089354;28;20072;-83
2023/08/24 07:57:56;;;;;;;12.70;7.28;;;;;;;21.76;70.81;99821.16;5088091;28;20253;-83
2023/08/24 08:00:22;;;;;;;14.70;7.17;;;;;;;21.80;70.73;99810.19;5092970;28;20039;-83
2023/08/24 08:02:51;;;;;;;10.75;7.15;;;;;;;21.87;70.65;99809.66;5094864;28;20302;-83
2023/08/24 08:05:17;;;;;;;14.90;7.53;;;;;;;21.91;70.31;99800.31;5095845;28;21324;-83
2023/08/24 08:07:42;;;;;;;13.45;7.03;;;;;;;21.99;70.00;99812.47;5095871;28;20067;-83
2023/08/24 08:10:08;;;;;;;13.73;7.65;;;;;;;22.02;69.18;99817.34;5096010;28;20602;-84
2023/08/24 08:12:34;;;;;;;13.20;7.53;;;;;;;22.03;69.64;99810.63;5095769;28;20040;-83
2023/08/24 08:14:59;;;;;;;11.20;6.63;;;;;;;22.06;69.28;99819.44;5092525;28;20074;-86
2023/08/24 08:17:25;;;;;;;10.17;6.53;;;;;;;22.10;69.52;99821.19;5091891;28;20031;-84
2023/08/24 08:19:55;;;;;;;14.80;7.03;;;;;;;22.16;69.63;99827.34;5091706;28;20279;-86
2023/08/24 08:22:20;;;;;;;14.02;6.18;;;;;;;22.25;70.18;99825.25;5090078;28;20051;-87
2023/08/24 08:24:45;;;;;;;14.60;5.97;;;;;;;22.27;69.90;99828.50;5092724;28;20485;-84
2023/08/24 08:27:11;;;;;;;10.67;6.07;;;;;;;22.33;69.33;99831.09;5095222;28;20245;-84
2023/08/24 08:29:36;;;;;;;12.30;6.10;;;;;;;22.35;69.42;99820.44;5095087;28;20032;-82
2023/08/24 08:32:02;;;;;;;12.38;6.32;;;;;;;22.41;69.36;99816.28;5094746;28;20288;-83
2023/08/24 08:34:27;;;;;;;13.48;8.38;;;;;;;22.48;69.07;99822.06;5095115;28;20028;-83
2023/08/24 08:36:52;;;;;;;9.13;5.90;;;;;;;22.57;68.97;99823.94;5093867;28;21260;-82
2023/08/24 08:39:17;;;;;;;13.07;6.97;;;;;;;22.59;68.77;99811.34;5095171;28;20027;-82
2023/08/24 08:41:46;;;;;;;11.37;5.33;;;;;;;22.63;69.03;99805.91;5101720;28;20332;-83
2023/08/24 08:44:13;;;;;;;12.75;5.25;;;;;;;22.64;69.09;99804.72;5096314;28;20875;-84
2023/08/24 08:46:42;;;;;;;15.75;6.07;;;;;;;22.70;69.16;99791.47;5095280;28;20020;-83
2023/08/24 08:49:12;;;;;;;13.75;6.10;;;;;;;22.77;69.08;99796.44;5093571;28;20031;-83
2023/08/24 08:51:37;;;;;;;8.82;4.38;;;;;;;22.81;69.02;99800.13;5093911;28;20036;-83
2023/08/24 08:54:05;;;;;;;10.40;5.13;;;;;;;22.88;69.19;99797.59;5094765;28;20024;-82
2023/08/24 08:56:31;;;;;;;11.25;4.88;;;;;;;22.91;69.33;99796.88;5094923;28;20034;-87
2023/08/24 08:58:59;;;;;;;9.13;5.50;;;;;;;22.96;69.11;99788.31;5093601;28;20093;-82
2023/08/24 09:01:24;;;;;;;11.68;4.80;;;;;;;23.08;68.61;99797.81;5094843;28;20026;-83
2023/08/24 09:03:51;;;;;;;8.55;4.70;;;;;;;23.13;68.21;99791.19;5094459;28;20747;-85
2023/08/24 09:06:16;;;;;;;8.63;5.63;;;;;;;23.17;68.47;99784.56;5094267;28;20123;-82
2023/08/24 09:08:42;;;;;;;11.10;4.80;;;;;;;23.24;68.14;99777.63;5089036;28;20135;-83
2023/08/24 09:11:08;;;;;;;7.75;4.80;;;;;;;23.25;68.23;99774.47;5088392;28;20272;-81
2023/08/24 09:13:33;;;;;;;8.38;4.40;;;;;;;23.29;68.35;99775.41;5090947;28;20035;-81
2023/08/24 09:16:06;;;;;;;9.07;5.43;;;;;;;23.33;68.34;99773.53;5087836;28;20136;-83
2023/08/24 09:18:39;;;;;;;11.00;4.85;;;;;;;23.40;68.49;99752.66;5092332;28;20582;-83
2023/08/24 09:21:09;;;;;;;14.50;5.47;;;;;;;23.49;68.04;99749.78;5094008;28;20040;-81
2023/08/24 09:23:34;;;;;;;11.75;4.75;;;;;;;23.52;67.98;99738.75;5096621;28;20024;-82
2023/08/24 09:25:59;;;;;;;11.30;4.80;;;;;;;23.59;67.75;99731.75;5090637;28;20389;-85
2023/08/24 09:28:25;;;;;;;8.45;4.47;;;;;;;23.62;67.53;99726.28;5090336;28;20269;-84
2023/08/24 09:30:54;;;;;;;14.52;4.53;;;;;;;23.69;67.65;99720.13;5090632;28;20075;-78
2023/08/24 09:33:21;;;;;;;9.60;4.82;;;;;;;23.78;67.62;99712.41;5083331;28;20055;-74
2023/08/24 09:35:52;;;;;;;13.48;4.53;;;;;;;23.90;68.26;99705.94;5084387;28;20044;-73
2023/08/24 09:38:23;;;;;;;10.13;4.57;;;;;;;24.00;67.30;99692.69;5083652;28;20039;-72
2023/08/24 09:40:52;;;;;;;6.80;3.67;;;;;;;24.05;67.02;99689.63;5084114;28;20067;-75
2023/08/24 09:43:18;;;;;;;5.68;3.53;;;;;;;24.11;66.63;99677.06;5084050;28;20067;-74
2023/08/24 09:45:50;;;;;;;11.38;4.20;;;;;;;24.24;66.30;99677.00;5084227;28;20063;-73
2023/08/24 09:48:16;;;;;;;8.07;3.55;;;;;;;24.33;66.35;99676.78;5083531;28;20126;-73
2023/08/24 09:50:43;;;;;;;7.20;3.95;;;;;;;24.62;65.64;99671.06;5083275;28;20062;-73
2023/08/24 09:53:22;;;;;;;6.43;3.35;;;;;;;24.69;64.45;99662.91;5083033;28;20666;-72
2023/08/24 09:56:01;;;;;;;8.32;3.75;;;;;;;24.71;64.53;99666.13;5083073;28;20524;-72
2023/08/24 09:58:27;;;;;;;10.68;4.30;;;;;;;24.79;63.62;99670.69;5083298;28;20217;-73
2023/08/24 10:00:53;;;;;;;7.57;4.32;;;;;;;24.79;63.76;99665.13;5083219;28;20089;-74
2023/08/24 10:03:21;;;;;;;4.70;2.80;;;;;;;24.87;63.50;99663.28;5082775;28;20119;-72
2023/08/24 10:05:53;;;;;;;9.45;3.38;;;;;;;24.91;63.60;99660.56;5083124;28;20087;-74
2023/08/24 10:08:22;;;;;;;9.10;3.42;;;;;;;25.00;63.18;99665.97;5083109;28;20489;-72
2023/08/24 10:10:52;;;;;;;5.75;3.30;;;;;;;25.08;63.52;99683.66;5083165;28;20120;-72
2023/08/24 10:13:26;;;;;;;8.00;3.72;;;;;;;25.04;62.96;99689.94;5083610;28;20385;-72
2023/08/24 10:15:52;;;;;;;8.13;3.42;;;;;;;25.19;60.93;99698.59;5083280;28;20109;-72
2023/08/24 10:18:19;;;;;;;7.63;3.17;;;;;;;25.29;60.89;99705.56;5083457;28;20119;-72
2023/08/24 10:20:46;;;;;;;5.57;2.90;;;;;;;25.30;60.28;99702.41;5083083;28;20360;-72
2023/08/24 10:23:14;;;;;;;6.22;2.55;;;;;;;25.36;60.24;99707.72;5082330;28;20032;-72
2023/08/24 10:25:41;;;;;;;5.32;3.05;;;;;;;25.34;57.87;99713.66;5082545;28;20372;-72
2023/08/24 10:28:07;;;;;;;4.85;3.03;;;;;;;25.39;58.19;99704.19;5082829;28;20118;-72
2023/08/24 10:30:35;;;;;;;8.20;3.38;;;;;;;25.43;58.72;99716.22;5083142;28;20047;-72
2023/08/24 10:33:01;;;;;;;6.30;2.88;;;;;;;25.56;58.99;99714.09;5083105;28;20106;-73
2023/08/24 10:35:27;;;;;;;6.85;3.67;;;;;;;25.63;60.29;99718.97;5082298;28;20769;-72
2023/08/24 10:37:53;;;;;;;13.13;4.53;;;;;;;25.68;59.74;99713.13;5081904;28;20110;-74
2023/08/24 10:40:35;;;;;;;11.23;3.30;;;;;;;25.65;59.37;99722.22;5083474;28;20036;-74
2023/08/24 10:43:05;;;;;;;6.63;3.58;;;;;;;25.64;59.42;99713.06;5082968;28;20555;-79
2023/08/24 10:45:58;;;;;;;7.45;2.70;;;;;;;25.62;59.74;99717.38;5084513;28;20056;-79
2023/08/24 10:48:26;;;;;;;12.77;3.50;;;;;;;25.55;60.71;99711.66;5082879;28;20111;-78
2023/08/24 10:51:13;;;;;;;7.55;3.13;;;;;;;25.48;60.98;99707.56;5083376;28;20028;-83
2023/08/24 10:53:39;;;;;;;7.70;3.33;;;;;;;25.47;60.75;99700.34;5082402;28;20059;-79
2023/08/24 10:56:12;;;;;;;6.70;3.28;;;;;;;25.57;60.78;99692.56;5082441;28;20225;-80
2023/08/24 10:58:37;;;;;;;12.57;4.13;;;;;;;25.63;60.70;99702.22;5082907;28;20032;-82
2023/08/24 11:01:03;;;;;;;9.27;3.35;;;;;;;25.67;59.64;99691.94;5082591;28;20047;-71
2023/08/24 11:03:32;;;;;;;6.72;3.25;;;;;;;25.73;60.27;99690.50;5081412;28;20081;-73
2023/08/24 11:05:58;;;;;;;6.30;2.90;;;;;;;25.83;59.54;99696.66;5081922;28;20059;-75
2023/08/24 11:08:44;;;;;;;9.80;3.13;;;;;;;25.86;59.39;99699.50;5080855;28;20072;-76
2023/08/24 11:11:19;;;;;;;6.68;3.53;;;;;;;25.83;58.55;99702.25;5082231;28;20506;-77
2023/08/24 11:14:13;;;;;;;9.32;4.53;;;;;;;25.84;59.50;99701.06;5082187;28;20394;-75
2023/08/24 11:16:39;;;;;;;;;;;;;;;25.85;59.28;99699.88;5082922;28;20035;-75
2023/08/24 11:19:06;;;;;;;6.53;3.53;;;;;;;25.86;59.05;99687.53;5082396;28;19920;-75
2023/08/24 11:21:33;;;;;;;7.30;3.38;;;;;;;25.85;58.99;99685.94;5082500;28;20362;-76